Impacts METAR Board INFO
IDs:

KDFW - Dallas-Ft Worth Intl, TX, US

Updated at: 1215 UTC 18 Nov 2017
Potential Impact None Slight Moderate High
Time18/00Z 18/01Z 18/02Z 18/03Z 18/04Z 18/05Z 18/06Z 18/07Z 18/08Z 18/09Z 18/10Z 18/11Z 18/12Z
VIS10 10 10 10 10 10 10 10 10 10 10 10 10
CIG-- -- -- -- -- 300 300 -- 300 300 300 300 300
CoverSCTSCTFEWFEWSCTBKNBKNSCTBKNBKNBKNBKNBKN
FltCatVFRVFRVFRVFRVFRVFRVFRVFRVFRVFRVFRVFRVFR
WX--------------------------
WDir190180180190200200200210200190190220220
WSpd20 13 14 14 18 22 18 14 16 7 10 9 14
WGst27 -- -- -- -- -- -- -- -- -- -- -- --
Raw hourly METARs
KDFW 172353Z 19020G27KT 10SM SCT300 27/18 A2971 RMK AO2 PK WND 20027/2347 SLP054 T02720178 10294 20267 56017
KDFW 180053Z 18013KT 10SM SCT300 26/18 A2972 RMK AO2 PK WND 20029/0003 SLP056 T02560178
KDFW 180153Z 18014KT 10SM FEW300 25/18 A2972 RMK AO2 SLP056 T02500178
KDFW 180253Z 19014KT 10SM FEW300 24/18 A2971 RMK AO2 SLP052 T02440178 58001
KDFW 180353Z 20018KT 10SM SCT300 25/18 A2970 RMK AO2 SLP049 T02500178
KDFW 180453Z 20022KT 10SM BKN300 24/18 A2969 RMK AO2 PK WND 20027/0435 SLP044 T02440178
KDFW 180553Z 20018KT 10SM BKN300 24/18 A2968 RMK AO2 SLP041 T02390178 10272 20239 402940206 56010
KDFW 180653Z 21014KT 10SM SCT300 23/18 A2968 RMK AO2 SLP040 T02330178
KDFW 180753Z 20016KT 10SM BKN300 23/18 A2966 RMK AO2 SLP033 T02280183
KDFW 180853Z 19007KT 10SM FEW015 BKN300 21/18 A2968 RMK AO2 SLP041 T02110178 55001
KDFW 180953Z 19010KT 10SM FEW013 BKN300 21/18 A2966 RMK AO2 SLP036 T02110178
KDFW 181053Z 22009KT 10SM BKN300 21/18 A2968 RMK AO2 SLP043 T02110178
KDFW 181153Z 22014KT 10SM BKN300 21/18 A2969 RMK AO2 SLP045 T02060178 10239 20206 53004